createdAt,value
2022-10-28T00:00:31.099Z,4.70
2022-10-28T00:03:01.440Z,5.00
2022-10-28T00:05:28.939Z,3.57
2022-10-28T00:07:55.769Z,3.60
2022-10-28T00:10:22.558Z,3.87
2022-10-28T00:12:49.291Z,4.00
2022-10-28T00:15:16.044Z,4.63
2022-10-28T00:17:42.778Z,4.67
2022-10-28T00:20:09.992Z,5.87
2022-10-28T00:22:36.678Z,5.80
2022-10-28T00:25:04.360Z,5.10
2022-10-28T00:27:31.488Z,4.57
2022-10-28T00:29:58.196Z,4.13
2022-10-28T00:32:24.816Z,4.70
2022-10-28T00:34:51.503Z,4.67
2022-10-28T00:37:18.194Z,4.30
2022-10-28T00:39:44.786Z,3.80
2022-10-28T00:42:11.941Z,4.40
2022-10-28T00:44:59.132Z,4.13
2022-10-28T00:47:25.844Z,4.00
2022-10-28T00:49:55.742Z,4.30
2022-10-28T00:52:26.938Z,4.67
2022-10-28T00:54:56.165Z,5.37
2022-10-28T00:57:36.517Z,4.47
2022-10-28T01:00:06.302Z,4.50
2022-10-28T01:02:37.607Z,5.20
2022-10-28T01:05:04.451Z,5.10
2022-10-28T01:07:31.141Z,4.70
2022-10-28T01:09:57.777Z,4.20
2022-10-28T01:12:33.198Z,4.30
2022-10-28T01:15:07.725Z,3.93
2022-10-28T01:18:02.870Z,3.87
2022-10-28T01:20:52.593Z,3.00
2022-10-28T01:23:47.170Z,3.97
2022-10-28T01:26:49.092Z,3.37
2022-10-28T01:29:49.944Z,5.00
2022-10-28T01:32:32.030Z,5.00
2022-10-28T01:34:58.609Z,5.30
2022-10-28T01:38:03.851Z,4.53
2022-10-28T01:40:34.864Z,3.77
2022-10-28T01:43:15.797Z,3.80
2022-10-28T01:46:09.968Z,3.40
2022-10-28T01:48:56.182Z,4.10
2022-10-28T01:51:29.855Z,3.93
2022-10-28T01:53:59.265Z,4.00
2022-10-28T01:56:31.188Z,4.67
2022-10-28T01:59:00.590Z,5.03
2022-10-28T02:01:29.931Z,5.30
2022-10-28T02:03:57.619Z,4.13
2022-10-28T02:06:27.705Z,3.70
2022-10-28T02:08:54.364Z,5.00
2022-10-28T02:11:48.355Z,4.30
2022-10-28T02:14:43.171Z,4.50
2022-10-28T02:17:26.186Z,4.17
2022-10-28T09:37:40.284Z,3.40
2022-10-28T10:28:16.661Z,3.20
2022-10-28T10:30:50.967Z,2.67
2022-10-28T10:33:22.032Z,2.70
2022-10-28T10:36:20.971Z,3.17
2022-10-28T10:38:55.415Z,2.93
2022-10-28T10:41:42.980Z,3.20
2022-10-28T10:44:21.869Z,2.53
2022-10-28T10:47:05.794Z,3.10
2022-10-28T10:49:34.672Z,3.30
2022-10-28T10:52:17.333Z,2.90
2022-10-28T10:55:08.894Z,2.60
2022-10-28T10:57:35.735Z,2.23
2022-10-28T11:00:03.532Z,2.03
2022-10-28T11:02:39.636Z,2.90
2022-10-28T11:05:08.900Z,1.80
2022-10-28T11:07:37.852Z,1.90
2022-10-28T11:10:05.456Z,3.27
2022-10-28T11:12:38.894Z,2.20
2022-10-28T11:15:17.619Z,2.90
2022-10-28T11:17:59.050Z,2.93
2022-10-28T11:20:46.945Z,2.40
2022-10-28T11:23:31.437Z,1.53
2022-10-28T11:26:08.816Z,2.67
2022-10-28T11:28:55.592Z,2.33
2022-10-28T11:31:52.332Z,2.83
2022-10-28T11:34:56.085Z,2.20
2022-10-28T11:37:51.392Z,2.20
2022-10-28T11:40:45.254Z,2.13
2022-10-28T11:43:26.981Z,2.43
2022-10-28T11:46:13.500Z,2.27
2022-10-28T11:49:00.420Z,2.43
2022-10-28T11:51:45.366Z,2.47
2022-10-28T11:54:32.831Z,2.80
2022-10-28T11:57:08.639Z,2.90
2022-10-28T11:59:56.563Z,2.33
2022-10-28T12:02:38.278Z,2.33
2022-10-28T12:05:25.584Z,2.50
2022-10-28T12:08:15.100Z,2.83
2022-10-28T12:11:02.252Z,2.20
2022-10-28T12:13:51.125Z,2.03
2022-10-28T12:16:29.801Z,2.30
2022-10-28T12:19:18.403Z,1.93
2022-10-28T12:21:58.898Z,2.47
2022-10-28T12:24:26.832Z,2.23
2022-10-28T12:26:59.279Z,2.53
2022-10-28T12:29:30.011Z,2.33
2022-10-28T12:32:08.398Z,2.80
2022-10-28T12:34:41.169Z,2.60
2022-10-28T12:37:18.056Z,2.70
2022-10-28T12:39:51.284Z,2.03
2022-10-28T12:42:31.048Z,1.93
2022-10-28T12:45:00.675Z,2.90
2022-10-28T12:47:57.247Z,5.30
2022-10-28T12:50:29.246Z,3.87
2022-10-28T12:53:34.255Z,3.13
2022-10-28T12:56:12.090Z,3.07
2022-10-28T12:59:00.956Z,2.50
2022-10-28T13:01:30.705Z,1.97
2022-10-28T13:03:57.601Z,2.70
2022-10-28T13:07:00.784Z,2.63
2022-10-28T13:09:39.486Z,2.30
2022-10-28T13:12:20.949Z,1.90
2022-10-28T13:14:56.411Z,1.90
2022-10-28T13:17:56.671Z,2.27
2022-10-28T13:20:43.893Z,1.80
2022-10-28T13:23:22.315Z,2.50
2022-10-28T13:25:53.153Z,3.33
2022-10-28T13:28:21.772Z,2.40
2022-10-28T13:30:54.428Z,2.60
2022-10-28T13:33:25.376Z,2.13
2022-10-28T13:38:25.655Z,2.40
2022-10-28T13:40:57.805Z,2.77
2022-10-28T13:43:49.281Z,2.20
2022-10-28T13:46:53.554Z,3.00
2022-10-28T13:49:31.776Z,2.93
2022-10-28T13:52:18.057Z,2.30
2022-10-28T13:54:44.637Z,2.47
2022-10-28T13:57:28.482Z,2.27
2022-10-28T14:00:04.029Z,2.10
2022-10-28T14:02:37.351Z,6.27
2022-10-28T14:05:09.871Z,2.30
2022-10-28T14:07:41.037Z,2.90
2022-10-28T14:10:21.654Z,2.70
2022-10-28T14:13:03.692Z,2.40
2022-10-28T14:15:39.195Z,2.23
2022-10-28T14:21:04.240Z,2.37
2022-10-28T14:23:33.690Z,2.50
